Brutus, MI (49716)

2:30 PM EDT on July 25, 2016 (GMT -0400)
Northwest Burt Lake | | Change Station

Elev 626 ft 45.51 °N, 84.70 °W | Updated 12 minutes ago

Mostly Cloudy
Mostly Cloudy
76.8 °F
Feels Like 79 °F
N
2.0
Wind Variable Wind from NW
Gusts 10.0 mph

Today
High -- | Low -- °F
--% Chance of Precip.
Yesterday
High -- | Low -- °F
Precip. -- in
Pressure 29.90 in
Visibility 10.0 miles
Clouds Mostly Cloudy 3500 ft
Mostly Cloudy 4400 ft
Heat Index 79 °F
Dew Point 65 °F
Humidity 66%
Rainfall 0.00 in
Snow Depth Not available.
6:15 AM 9:14 PM
Waning Gibbous, 63% visible
METAR KPLN 251754Z AUTO 29011KT 10SM BKN035 BKN044 26/16 A2991 RMK AO2 SLP125 T02560161 10261 20217 51010
Pressure 29.90 in
Visibility 10.0 miles
Clouds Mostly Cloudy 3500 ft
Mostly Cloudy 4400 ft
Heat Index 79 °F
Dew Point 65 °F
Humidity 66%
Rainfall 0.00 in
Snow Depth Not available.
6:15 AM 9:14 PM
Waning Gibbous, 63% visible
METAR KPLN 251754Z AUTO 29011KT 10SM BKN035 BKN044 26/16 A2991 RMK AO2 SLP125 T02560161 10261 20217 51010

10-Day Weather Forecast

Almanac

Astronomy

Jul. 25, 2016 Rise Set
Actual Time
Civil Twilight
Nautical Twilight
Astronomical Twilight
Moon
Length of Visible Light
Length of Day
Tomorrow will be .
, % of the Moon is Illuminated

Today's Extremes

State Highs State Lows

Community

WunderPhotos

Upload Photos

1,927,365 photos uploaded!

WunderBlog® & News

Nearby

Air Quality

  Air Quality AQ Index Pollutant
Not available.

Snow Depth

Station Depth Elevation

Earthquake Activity

City Distance Mag. Time & Date
Minimum magnitude displayed is 2.5.

Coastal Water Temperatures

Place Temperature

Stations

Nearby Weather Stations

Station Location Temp. Windchill Dew Point Humidity Wind Precip. Elev Updated Type
                   

Watches & Warnings

There are currently no watches in effect.